createdAt,value
2023-11-25T00:01:41.697Z,-3.95
2023-11-25T00:06:45.850Z,-4.03
2023-11-25T00:11:49.644Z,-4.16
2023-11-25T00:16:57.234Z,-4.04
2023-11-25T00:22:00.872Z,-4.29
2023-11-25T00:27:04.960Z,-4.17
2023-11-25T00:32:10.296Z,-4.24
2023-11-25T00:37:13.794Z,-4.24
2023-11-25T00:42:17.525Z,-4.19
2023-11-25T00:47:23.678Z,-4.20
2023-11-25T00:52:27.223Z,-4.26
2023-11-25T00:57:30.931Z,-4.15
2023-11-25T01:02:36.786Z,-4.18
2023-11-25T01:07:40.371Z,-4.22
2023-11-25T01:12:43.967Z,-4.45
2023-11-25T01:17:49.005Z,-4.73
2023-11-25T01:22:52.707Z,-4.74
2023-11-25T01:27:56.522Z,-4.73
2023-11-25T01:33:03.436Z,-4.77
2023-11-25T01:38:07.173Z,-4.84
2023-11-25T01:43:12.883Z,-4.75
2023-11-25T01:48:18.073Z,-4.81
2023-11-25T01:53:22.451Z,-4.99
2023-11-25T01:58:26.909Z,-4.90
2023-11-25T02:03:32.894Z,-4.87
2023-11-25T02:08:36.538Z,-4.79
2023-11-25T02:13:40.337Z,-5.14
2023-11-25T02:18:45.903Z,-5.17
2023-11-25T02:23:50.729Z,-5.04
2023-11-25T02:28:54.243Z,-5.20
2023-11-25T02:33:57.879Z,-5.19
2023-11-25T02:39:03.231Z,-5.11
2023-11-25T02:44:08.660Z,-5.06
2023-11-25T02:49:12.383Z,-4.88
2023-11-25T02:54:17.499Z,-4.89
2023-11-25T02:59:20.985Z,-4.98
2023-11-25T03:04:28.348Z,-4.91
2023-11-25T03:09:35.062Z,-4.97
2023-11-25T03:14:38.538Z,-5.17
2023-11-25T03:19:42.033Z,-5.19
2023-11-25T03:24:47.195Z,-5.07
2023-11-25T03:29:50.869Z,-5.40
2023-11-25T03:34:54.419Z,-5.32
2023-11-25T03:39:59.441Z,-5.10
2023-11-25T03:45:02.933Z,-5.00
2023-11-25T03:50:09.903Z,-5.15
2023-11-25T03:55:15.245Z,-5.20
2023-11-25T04:00:20.283Z,-5.35
2023-11-25T04:05:25.195Z,-5.35
2023-11-25T04:10:30.239Z,-5.30
2023-11-25T04:15:34.129Z,-5.13
2023-11-25T04:20:37.989Z,-4.93
2023-11-25T04:25:44.954Z,-4.97
2023-11-25T04:30:48.714Z,-5.08
2023-11-25T04:35:52.758Z,-5.03
2023-11-25T04:40:58.302Z,-4.85
2023-11-25T04:46:05.974Z,-5.04
2023-11-25T04:51:10.588Z,-4.98
2023-11-25T04:56:17.241Z,-4.82
2023-11-25T05:01:21.148Z,-4.83
2023-11-25T05:06:24.872Z,-4.81
2023-11-25T05:11:30.034Z,-4.75
2023-11-25T05:16:33.585Z,-4.87
2023-11-25T05:21:37.170Z,-4.84
2023-11-25T05:26:42.082Z,-4.79
2023-11-25T05:31:45.639Z,-4.80
2023-11-25T05:36:49.666Z,-5.04
2023-11-25T05:41:54.825Z,-5.00
2023-11-25T05:46:58.615Z,-4.77
2023-11-25T05:52:02.288Z,-4.64
2023-11-25T05:57:07.589Z,-4.34
2023-11-25T06:02:11.112Z,-4.15
2023-11-25T06:07:28.571Z,-3.98
2023-11-25T06:12:34.159Z,-3.94
2023-11-25T06:17:38.359Z,-3.83
2023-11-25T06:22:42.785Z,-3.74
2023-11-25T06:27:48.570Z,-3.56
2023-11-25T06:32:52.557Z,-3.72
2023-11-25T06:37:56.367Z,-3.30
2023-11-25T06:43:01.899Z,-2.41
2023-11-25T06:48:05.870Z,-1.83
2023-11-25T06:53:09.849Z,-2.00
2023-11-25T06:58:15.085Z,-2.06
2023-11-25T07:03:18.753Z,-2.04
2023-11-25T07:08:22.250Z,-2.09
2023-11-25T07:13:29.297Z,-2.26
2023-11-25T07:18:34.419Z,-2.34
2023-11-25T07:23:38.115Z,-2.58
2023-11-25T07:28:44.818Z,-2.70
2023-11-25T07:33:51.341Z,-2.84
2023-11-25T07:38:55.031Z,-3.03
2023-11-25T07:44:00.052Z,-3.06
2023-11-25T07:49:03.834Z,-3.05
2023-11-25T07:54:09.882Z,-2.92
2023-11-25T07:59:14.981Z,-2.93
2023-11-25T08:04:18.717Z,-2.92
2023-11-25T08:09:22.654Z,-2.50
2023-11-25T08:14:27.845Z,-2.13
2023-11-25T08:19:31.627Z,-2.10
2023-11-25T08:24:36.788Z,-2.08
2023-11-25T08:29:46.182Z,-2.02
2023-11-25T08:34:51.379Z,-1.89
2023-11-25T08:39:55.024Z,-1.83
2023-11-25T08:45:02.632Z,-1.70
2023-11-25T08:50:11.669Z,-1.46
2023-11-25T08:55:19.775Z,-1.34
2023-11-25T09:00:25.664Z,-1.12
2023-11-25T09:05:30.082Z,-1.05
2023-11-25T09:10:35.592Z,-1.10
2023-11-25T09:15:42.190Z,-1.03
2023-11-25T09:20:46.481Z,-1.23
2023-11-25T09:25:50.031Z,-1.13
2023-11-25T09:30:55.159Z,-1.22
2023-11-25T09:35:58.860Z,-1.27
2023-11-25T09:41:02.538Z,-1.32
2023-11-25T09:46:08.326Z,-1.27
2023-11-25T09:51:15.580Z,-1.34
2023-11-25T09:56:19.985Z,-1.48
2023-11-25T10:01:25.552Z,-1.46
2023-11-25T10:06:31.161Z,-1.58
2023-11-25T10:11:35.829Z,-1.56
2023-11-25T10:16:43.451Z,-1.48
2023-11-25T10:21:48.200Z,-1.58
2023-11-25T10:26:52.541Z,-1.49
2023-11-25T10:31:59.208Z,-1.62
2023-11-25T10:37:03.197Z,-1.66
2023-11-25T10:42:08.930Z,-1.84
2023-11-25T10:47:31.490Z,-1.83
2023-11-25T10:52:39.987Z,-2.00
2023-11-25T10:57:43.998Z,-1.96
2023-11-25T11:02:52.089Z,-1.98
2023-11-25T11:08:03.300Z,-1.97
2023-11-25T11:13:10.795Z,-2.07
2023-11-25T11:18:21.614Z,-2.13
2023-11-25T11:23:26.520Z,-2.17
2023-11-25T11:28:42.940Z,-2.18
2023-11-25T11:33:48.136Z,-2.21
2023-11-25T11:38:54.171Z,-2.36
2023-11-25T11:44:04.706Z,-2.36
2023-11-25T11:49:10.691Z,-2.34
2023-11-25T11:54:28.024Z,-2.28
2023-11-25T12:00:13.384Z,-2.24
2023-11-25T12:05:18.742Z,-2.33
2023-11-25T12:10:22.577Z,-2.39
2023-11-25T12:15:26.109Z,-2.38
2023-11-25T12:20:32.577Z,-2.39
2023-11-25T12:25:37.816Z,-2.63
2023-11-25T12:30:42.585Z,-2.84
2023-11-25T12:35:48.126Z,-3.14
2023-11-25T12:40:51.643Z,-3.34
2023-11-25T12:45:55.177Z,-3.41
2023-11-25T12:51:06.441Z,-3.22
2023-11-25T12:56:15.784Z,-3.24
2023-11-25T13:01:26.582Z,-3.30
2023-11-25T13:06:32.165Z,-3.28
2023-11-25T13:11:36.658Z,-3.40
2023-11-25T13:16:40.364Z,-3.44
2023-11-25T13:21:45.518Z,-3.45
2023-11-25T13:26:53.328Z,-3.43
2023-11-25T13:31:57.833Z,-3.40
2023-11-25T13:37:04.068Z,-3.40
2023-11-25T13:42:09.059Z,-3.56
2023-11-25T13:47:13.032Z,-3.53
2023-11-25T13:52:17.954Z,-3.35
2023-11-25T13:57:21.593Z,-3.62
2023-11-25T14:02:28.992Z,-3.43
2023-11-25T14:07:34.499Z,-3.34
2023-11-25T14:12:38.919Z,-3.35
2023-11-25T14:17:42.891Z,-3.39
2023-11-25T14:22:49.227Z,-3.47
2023-11-25T14:27:53.253Z,-3.51
2023-11-25T14:32:56.969Z,-3.53
2023-11-25T14:38:05.521Z,-3.44
2023-11-25T14:43:10.997Z,-3.45
2023-11-25T14:48:14.616Z,-3.41
2023-11-25T14:53:19.685Z,-3.47
2023-11-25T14:58:24.706Z,-3.48
2023-11-25T15:03:29.340Z,-3.40
2023-11-25T15:08:36.435Z,-3.34
2023-11-25T15:13:40.079Z,-3.35
2023-11-25T15:18:43.832Z,-3.36
2023-11-25T15:23:48.868Z,-3.30
2023-11-25T15:28:55.743Z,-3.32
2023-11-25T15:33:59.361Z,-3.61
2023-11-25T15:39:06.047Z,-3.58
2023-11-25T15:44:09.747Z,-3.68
2023-11-25T15:49:13.732Z,-3.58
2023-11-25T15:54:18.664Z,-3.73
2023-11-25T15:59:25.477Z,-3.62
2023-11-25T16:04:29.210Z,-3.55
2023-11-25T16:09:36.897Z,-3.48
2023-11-25T16:14:41.451Z,-3.53
2023-11-25T16:19:45.280Z,-3.71
2023-11-25T16:24:50.602Z,-3.47
2023-11-25T16:29:56.233Z,-3.70
2023-11-25T16:35:00.409Z,-3.61
2023-11-25T16:40:06.999Z,-3.65
2023-11-25T16:45:11.003Z,-3.81
2023-11-25T16:50:15.335Z,-3.61
2023-11-25T16:55:20.811Z,-3.39
2023-11-25T17:00:24.536Z,-3.46
2023-11-25T17:05:29.102Z,-3.43
2023-11-25T17:10:34.213Z,-3.46
2023-11-25T17:15:38.348Z,-3.42
2023-11-25T17:20:42.037Z,-3.49
2023-11-25T17:25:47.112Z,-3.45
2023-11-25T17:30:50.810Z,-3.41
2023-11-25T17:35:54.276Z,-3.73
2023-11-25T17:40:59.342Z,-3.72
2023-11-25T17:46:04.013Z,-3.97
2023-11-25T17:51:08.410Z,-4.06
2023-11-25T17:56:13.583Z,-4.09
2023-11-25T18:01:17.609Z,-4.03
2023-11-25T18:06:21.285Z,-4.07
2023-11-25T18:11:27.045Z,-3.94
2023-11-25T18:16:30.792Z,-4.08
2023-11-25T18:21:34.286Z,-4.12
2023-11-25T18:26:39.219Z,-4.04
2023-11-25T18:31:42.708Z,-4.10
2023-11-25T18:36:46.162Z,-4.16
2023-11-25T18:41:51.534Z,-3.78
2023-11-25T18:46:55.470Z,-3.79
2023-11-25T18:52:02.652Z,-3.72
2023-11-25T18:57:08.627Z,-3.63
2023-11-25T19:02:12.174Z,-3.59
2023-11-25T19:07:16.238Z,-3.40
2023-11-25T19:12:21.461Z,-3.31
2023-11-25T19:17:25.282Z,-3.37
2023-11-25T19:22:29.076Z,-3.21
2023-11-25T19:27:34.225Z,-3.25
2023-11-25T19:32:38.339Z,-3.38
2023-11-25T19:37:42.215Z,-3.22
2023-11-25T19:42:47.162Z,-3.05
2023-11-25T19:47:50.899Z,-2.95
2023-11-25T19:52:54.643Z,-2.79
2023-11-25T19:57:59.942Z,-2.62
2023-11-25T20:03:04.321Z,-2.68
2023-11-25T20:08:09.819Z,-2.63
2023-11-25T20:13:16.636Z,-2.42
2023-11-25T20:18:20.453Z,-2.33
2023-11-25T20:23:27.764Z,-2.41
2023-11-25T20:28:32.724Z,-2.39
2023-11-25T20:33:37.258Z,-2.67
2023-11-25T20:38:42.741Z,-2.62
2023-11-25T20:43:47.969Z,-2.58
2023-11-25T20:48:51.883Z,-2.73
2023-11-25T20:53:55.556Z,-2.60
2023-11-25T20:59:02.053Z,-2.36
2023-11-25T21:04:06.295Z,-2.26
2023-11-25T21:09:10.204Z,-2.28
2023-11-25T21:14:15.132Z,-2.31
2023-11-25T21:19:19.435Z,-2.36
2023-11-25T21:24:23.842Z,-2.24
2023-11-25T21:29:28.903Z,-2.12
2023-11-25T21:34:32.658Z,-2.12
2023-11-25T21:39:36.168Z,-2.03
2023-11-25T21:44:41.318Z,-2.01
2023-11-25T21:49:45.144Z,-2.20
2023-11-25T21:54:48.840Z,-2.13
2023-11-25T21:59:54.302Z,-2.13
2023-11-25T22:04:57.987Z,-2.34
2023-11-25T22:10:02.112Z,-2.12
2023-11-25T22:15:08.638Z,-2.06
2023-11-25T22:20:12.790Z,-2.03
2023-11-25T22:25:27.148Z,-1.99
2023-11-25T22:30:32.477Z,-1.92
2023-11-25T22:35:47.765Z,-1.95
2023-11-25T22:40:59.298Z,-1.82
2023-11-25T22:46:06.421Z,-1.91
2023-11-25T22:51:10.119Z,-1.76
2023-11-25T22:56:13.877Z,-1.74
2023-11-25T23:01:20.845Z,-1.61
2023-11-25T23:06:24.901Z,-1.60
2023-11-25T23:11:28.636Z,-1.61
2023-11-25T23:16:33.918Z,-1.69
2023-11-25T23:21:37.851Z,-1.97
2023-11-25T23:26:42.086Z,-1.94
2023-11-25T23:31:47.169Z,-1.97
2023-11-25T23:36:50.920Z,-2.28
2023-11-25T23:41:54.899Z,-2.16
2023-11-25T23:46:59.800Z,-2.22
2023-11-25T23:52:03.995Z,-2.01
2023-11-25T23:57:07.449Z,-1.92
